createdAt,value
2022-07-28T00:01:19.846Z,1.20
2022-07-28T00:03:49.142Z,1.50
2022-07-28T00:06:16.399Z,0.95
2022-07-28T00:08:43.416Z,0.98
2022-07-28T00:11:10.467Z,1.02
2022-07-28T00:13:37.644Z,1.30
2022-07-28T00:16:04.966Z,0.93
2022-07-28T00:18:31.915Z,1.20
2022-07-28T00:20:59.058Z,0.95
2022-07-28T00:23:38.941Z,1.00
2022-07-28T00:26:08.702Z,1.10
2022-07-28T00:28:36.955Z,1.17
2022-07-28T00:31:07.001Z,1.40
2022-07-28T00:33:35.845Z,1.23
2022-07-28T00:36:03.918Z,1.17
2022-07-28T00:38:31.174Z,1.30
2022-07-28T00:43:45.743Z,1.20
2022-07-28T00:46:15.787Z,1.60
2022-07-28T00:48:50.281Z,1.27
2022-07-28T00:51:20.724Z,1.73
2022-07-28T00:53:48.152Z,1.58
2022-07-28T00:56:19.055Z,1.60
2022-07-28T00:58:47.462Z,1.25
2022-07-28T01:01:17.895Z,1.63
2022-07-28T01:03:47.708Z,1.40
2022-07-28T01:06:33.299Z,1.67
2022-07-28T01:09:38.844Z,1.98
2022-07-28T01:12:50.478Z,1.45
2022-07-28T01:15:25.459Z,1.80
2022-07-28T01:18:04.016Z,2.10
2022-07-28T01:20:42.255Z,1.67
2022-07-28T01:23:18.967Z,1.70
2022-07-28T01:25:57.927Z,1.67
2022-07-28T01:28:45.559Z,1.88
2022-07-28T01:31:41.143Z,1.73
2022-07-28T01:34:37.403Z,1.80
2022-07-28T01:37:15.861Z,1.60
2022-07-28T01:39:44.709Z,1.70
2022-07-28T01:42:33.541Z,1.70
2022-07-28T01:45:02.300Z,1.67
2022-07-28T01:47:30.874Z,2.30
2022-07-28T01:50:03.460Z,2.10
2022-07-28T01:52:32.078Z,2.30
2022-07-28T01:55:02.349Z,1.80
2022-07-28T01:57:34.104Z,2.30
2022-07-28T02:00:02.153Z,2.33
2022-07-28T02:02:31.109Z,1.90
2022-07-28T02:05:00.324Z,1.85
2022-07-28T02:07:28.983Z,1.80
2022-07-28T02:09:58.881Z,1.77
2022-07-28T02:12:28.037Z,1.80
2022-07-28T02:14:56.693Z,2.10
2022-07-28T02:17:30.854Z,1.92
2022-07-28T02:19:59.510Z,1.80
2022-07-28T02:22:27.969Z,1.90
2022-07-28T02:24:56.034Z,1.92
2022-07-28T02:27:28.114Z,1.85
2022-07-28T02:30:02.695Z,1.75
2022-07-28T02:32:38.876Z,1.90
2022-07-28T02:35:40.757Z,1.70
2022-07-28T02:38:12.831Z,1.95
2022-07-28T02:40:43.145Z,1.92
2022-07-28T02:43:18.702Z,1.90
2022-07-28T02:48:17.567Z,1.70
2022-07-28T02:50:46.619Z,2.10
2022-07-28T02:53:16.309Z,2.03
2022-07-28T02:55:47.536Z,1.95
2022-07-28T02:58:18.553Z,1.90
2022-07-28T03:00:46.244Z,1.90
2022-07-28T03:03:13.768Z,2.28
2022-07-28T03:05:41.882Z,1.63
2022-07-28T03:08:09.289Z,1.88
2022-07-28T03:10:36.327Z,2.00
2022-07-28T03:13:05.467Z,1.80
2022-07-28T03:15:32.524Z,1.77
2022-07-28T03:18:01.139Z,1.80
2022-07-28T03:20:28.670Z,2.00
2022-07-28T03:22:55.639Z,1.80
2022-07-28T03:25:43.997Z,2.20
2022-07-28T03:28:17.868Z,2.28
2022-07-28T03:30:52.562Z,2.00
2022-07-28T03:33:19.713Z,1.80
2022-07-28T03:35:50.194Z,2.40
2022-07-28T03:38:23.118Z,2.08
2022-07-28T03:40:52.268Z,1.90
2022-07-28T03:43:21.672Z,1.83
2022-07-28T03:45:48.987Z,2.05
2022-07-28T03:48:16.244Z,1.98
2022-07-28T03:50:43.435Z,2.10
2022-07-28T03:53:30.333Z,1.90
2022-07-28T03:55:57.940Z,2.10
2022-07-28T03:58:28.954Z,1.80
2022-07-28T04:00:57.539Z,1.90
2022-07-28T04:03:42.689Z,1.83
2022-07-28T04:08:37.813Z,1.70
2022-07-28T04:11:04.897Z,1.70
2022-07-28T04:13:37.022Z,1.50
2022-07-28T04:16:05.020Z,1.50
2022-07-28T04:18:31.988Z,1.60
2022-07-28T04:20:59.646Z,1.20
2022-07-28T04:23:26.690Z,1.25
2022-07-28T04:25:53.648Z,2.10
2022-07-28T04:28:20.703Z,1.35
2022-07-28T04:30:47.846Z,1.38
2022-07-28T04:33:15.920Z,1.10
2022-07-28T04:35:42.956Z,1.23
2022-07-28T04:38:10.819Z,1.38
2022-07-28T04:40:37.827Z,1.42
2022-07-28T04:43:04.935Z,1.63
2022-07-28T04:45:32.053Z,1.40
2022-07-28T04:47:59.119Z,1.13
2022-07-28T04:50:26.221Z,1.00
2022-07-28T04:52:53.284Z,0.80
2022-07-28T04:55:20.481Z,0.98
2022-07-28T04:57:48.316Z,1.10
2022-07-28T05:00:19.092Z,0.80
2022-07-28T05:02:49.256Z,0.88
2022-07-28T05:05:16.996Z,1.15
2022-07-28T05:07:51.695Z,0.90
2022-07-28T05:10:18.680Z,1.20
2022-07-28T05:12:47.575Z,1.00
2022-07-28T05:15:29.200Z,0.98
2022-07-28T05:17:56.222Z,1.27
2022-07-28T05:20:23.283Z,0.82
2022-07-28T05:22:57.864Z,0.77
2022-07-28T05:25:25.719Z,0.90
2022-07-28T05:27:54.384Z,1.13
2022-07-28T05:30:22.279Z,0.80
2022-07-28T05:32:59.319Z,0.60
2022-07-28T05:35:26.839Z,1.13
2022-07-28T05:37:54.112Z,0.70
2022-07-28T05:40:24.174Z,0.80
2022-07-28T05:42:51.161Z,0.45
2022-07-28T05:45:18.492Z,0.85
2022-07-28T05:47:52.311Z,0.80
2022-07-28T05:50:21.728Z,0.50
2022-07-28T05:52:52.904Z,0.43
2022-07-28T05:55:20.247Z,0.98
2022-07-28T05:57:47.667Z,0.90
2022-07-28T06:00:22.639Z,0.60
2022-07-28T06:02:50.601Z,0.60
2022-07-28T06:05:20.006Z,0.70
2022-07-28T06:07:48.296Z,0.80
2022-07-28T06:10:17.948Z,0.90
2022-07-28T06:12:52.538Z,0.90
2022-07-28T06:15:21.771Z,1.10
2022-07-28T06:17:52.679Z,0.90
2022-07-28T06:20:21.248Z,1.00
2022-07-28T06:22:53.683Z,0.85
2022-07-28T06:25:23.578Z,0.75
2022-07-28T06:27:53.372Z,0.60
2022-07-28T06:30:20.925Z,0.88
2022-07-28T06:32:49.000Z,0.68
2022-07-28T06:35:20.246Z,0.70
2022-07-28T06:37:49.358Z,0.60
2022-07-28T06:40:17.792Z,0.80
2022-07-28T06:42:45.528Z,0.80
2022-07-28T06:45:32.518Z,0.93
2022-07-28T06:47:59.642Z,0.80
2022-07-28T06:50:27.213Z,0.75
2022-07-28T06:52:59.230Z,0.60
2022-07-28T06:55:34.468Z,0.40
2022-07-28T06:58:02.550Z,0.80
2022-07-28T07:00:29.963Z,0.70
2022-07-28T07:02:57.391Z,0.73
2022-07-28T07:05:25.927Z,0.90
2022-07-28T07:07:52.940Z,0.70
2022-07-28T07:10:20.324Z,1.00
2022-07-28T07:12:47.401Z,0.77
2022-07-28T07:15:17.278Z,1.00
2022-07-28T07:17:44.323Z,0.63
2022-07-28T07:20:13.543Z,0.75
2022-07-28T07:22:47.436Z,0.55
2022-07-28T07:25:20.631Z,0.60
2022-07-28T07:27:48.040Z,0.60
2022-07-28T07:30:16.107Z,0.50
2022-07-28T07:32:43.881Z,0.88
2022-07-28T07:35:11.221Z,0.55
2022-07-28T07:37:38.507Z,0.60
2022-07-28T07:40:06.618Z,0.57
2022-07-28T07:42:33.826Z,0.70
2022-07-28T07:45:01.019Z,0.75
2022-07-28T07:47:28.134Z,0.60
2022-07-28T07:49:55.172Z,0.65
2022-07-28T07:52:22.182Z,0.57
2022-07-28T07:54:49.186Z,0.60
2022-07-28T07:57:16.278Z,0.70
2022-07-28T07:59:43.243Z,0.80
2022-07-28T08:02:10.558Z,0.95
2022-07-28T08:04:38.373Z,0.77
2022-07-28T08:07:06.677Z,0.88
2022-07-28T08:09:34.213Z,0.80
2022-07-28T08:12:01.218Z,1.02
2022-07-28T08:14:28.450Z,0.90
2022-07-28T08:16:58.742Z,0.80
2022-07-28T08:19:26.370Z,0.80
2022-07-28T08:21:55.669Z,1.00
2022-07-28T08:24:32.452Z,1.00
2022-07-28T08:27:00.377Z,0.90
2022-07-28T08:29:27.574Z,1.13
2022-07-28T08:31:54.618Z,1.13
2022-07-28T08:34:31.186Z,1.45
2022-07-28T08:37:01.935Z,1.05
2022-07-28T08:39:29.510Z,0.75
2022-07-28T08:42:11.488Z,0.90
2022-07-28T08:44:55.108Z,0.80
2022-07-28T08:47:23.315Z,0.80
2022-07-28T08:49:52.010Z,1.10
2022-07-28T08:52:21.803Z,1.00
2022-07-28T08:54:50.951Z,0.88
2022-07-28T08:57:22.855Z,0.85
2022-07-28T08:59:50.294Z,0.88
2022-07-28T09:02:18.647Z,0.65
2022-07-28T09:04:46.511Z,0.70
2022-07-28T09:07:34.715Z,1.05
2022-07-28T09:10:05.895Z,0.50
2022-07-28T09:12:36.486Z,0.77
2022-07-28T09:15:08.932Z,0.70
2022-07-28T09:17:37.005Z,1.15
2022-07-28T09:20:10.639Z,0.52
2022-07-28T09:22:58.689Z,0.85
2022-07-28T09:25:26.639Z,0.40
2022-07-28T09:27:54.867Z,1.05
2022-07-28T09:30:33.435Z,0.73
2022-07-28T09:33:42.604Z,0.93
2022-07-28T09:36:16.144Z,0.40
2022-07-28T09:38:43.464Z,0.73
2022-07-28T09:41:11.327Z,0.40
2022-07-28T09:43:44.597Z,0.52
2022-07-28T09:46:16.845Z,0.40
2022-07-28T09:48:51.440Z,0.50
2022-07-28T09:51:23.873Z,0.57
2022-07-28T09:53:51.863Z,0.60
2022-07-28T09:56:19.417Z,0.98
2022-07-28T09:58:57.477Z,0.80
2022-07-28T10:01:26.048Z,0.47
2022-07-28T10:03:58.137Z,0.40
2022-07-28T10:06:33.328Z,0.50
2022-07-28T10:09:03.466Z,0.50
2022-07-28T10:11:31.131Z,0.50
2022-07-28T10:14:00.304Z,0.55
2022-07-28T10:16:34.631Z,0.68
2022-07-28T10:19:04.955Z,0.50
2022-07-28T10:21:34.632Z,0.45
2022-07-28T10:24:06.420Z,0.70
2022-07-28T10:26:44.360Z,1.00
2022-07-28T10:29:21.058Z,0.45
2022-07-28T10:32:00.877Z,0.52
2022-07-28T10:34:48.559Z,0.57
2022-07-28T10:37:24.695Z,0.50
2022-07-28T10:40:11.711Z,0.90
2022-07-28T10:42:40.688Z,0.35
2022-07-28T10:45:11.148Z,0.50
2022-07-28T10:47:38.208Z,0.50
2022-07-28T10:50:05.802Z,0.40
2022-07-28T10:52:47.160Z,0.45
2022-07-28T10:55:21.911Z,1.33
2022-07-28T10:58:02.334Z,0.70
2022-07-28T11:01:05.046Z,0.88
2022-07-28T11:03:42.887Z,0.93
2022-07-28T11:06:33.603Z,0.85
2022-07-28T11:09:21.971Z,0.70
2022-07-28T11:11:59.095Z,0.75
2022-07-28T11:14:26.120Z,0.30
2022-07-28T11:17:10.478Z,0.55
2022-07-28T11:19:55.781Z,0.32
2022-07-28T11:22:33.903Z,0.40
2022-07-28T11:25:19.483Z,0.60
2022-07-28T11:27:52.161Z,0.50
2022-07-28T11:30:20.237Z,0.90
2022-07-28T11:32:56.071Z,0.70
2022-07-28T11:35:24.937Z,0.63
2022-07-28T11:38:01.308Z,0.60
2022-07-28T11:40:40.824Z,0.70
2022-07-28T11:43:36.006Z,0.50
2022-07-28T11:46:11.444Z,0.43
2022-07-28T11:48:45.191Z,0.50
2022-07-28T11:51:14.178Z,0.38
2022-07-28T11:53:45.692Z,0.80
2022-07-28T11:56:29.478Z,0.28
2022-07-28T11:58:57.517Z,0.90
2022-07-28T12:01:24.604Z,0.80
2022-07-28T12:03:55.808Z,0.50
2022-07-28T12:06:28.690Z,0.50
2022-07-28T12:09:02.940Z,0.60
2022-07-28T12:11:34.963Z,0.50
2022-07-28T12:14:04.561Z,1.45
2022-07-28T12:16:33.321Z,0.68
2022-07-28T12:19:01.701Z,0.47
2022-07-28T12:21:51.047Z,0.60
2022-07-28T12:24:44.993Z,0.47
2022-07-28T12:27:15.157Z,0.70
2022-07-28T12:29:42.728Z,0.85
2022-07-28T12:32:10.341Z,1.05
2022-07-28T12:34:40.516Z,0.70
2022-07-28T12:37:11.663Z,0.50
2022-07-28T12:39:42.292Z,0.60
2022-07-28T12:42:11.925Z,0.60
2022-07-28T12:44:44.316Z,0.70
2022-07-28T12:47:13.411Z,0.73
2022-07-28T12:49:43.089Z,0.63
2022-07-28T12:52:18.394Z,0.50
2022-07-28T12:54:52.928Z,1.02
2022-07-28T12:57:50.493Z,0.70
2022-07-28T13:00:21.084Z,0.40
2022-07-28T13:02:49.687Z,0.63
2022-07-28T13:05:55.583Z,0.68
2022-07-28T13:08:27.531Z,0.60
2022-07-28T13:10:58.691Z,0.50
2022-07-28T13:13:27.085Z,0.50
2022-07-28T13:16:17.235Z,0.73
2022-07-28T13:18:53.672Z,0.50
2022-07-28T13:21:58.653Z,0.63
2022-07-28T13:24:27.777Z,0.82
2022-07-28T13:26:55.359Z,0.50
2022-07-28T13:29:22.994Z,0.50
2022-07-28T13:31:50.502Z,1.10
2022-07-28T13:34:17.992Z,0.88
2022-07-28T13:36:45.311Z,0.50
2022-07-28T13:39:14.047Z,0.90
2022-07-28T13:41:57.659Z,0.63
2022-07-28T13:44:30.574Z,0.30
2022-07-28T13:46:59.225Z,0.45
2022-07-28T13:49:31.933Z,0.52
2022-07-28T13:52:00.178Z,0.60
2022-07-28T13:54:28.244Z,0.70
2022-07-28T13:56:55.452Z,0.55
2022-07-28T13:59:26.363Z,0.88
2022-07-28T14:01:55.526Z,0.55
2022-07-28T14:04:22.810Z,0.95
2022-07-28T14:06:50.228Z,0.52
2022-07-28T14:09:21.007Z,0.50
2022-07-28T14:11:49.859Z,0.70
2022-07-28T14:14:25.445Z,0.60
2022-07-28T14:16:55.847Z,0.88
2022-07-28T14:19:37.916Z,0.30
2022-07-28T14:22:13.564Z,0.70
2022-07-28T14:24:42.637Z,0.73
2022-07-28T14:27:11.100Z,0.65
2022-07-28T14:29:38.979Z,0.70
2022-07-28T14:32:06.684Z,0.70
2022-07-28T14:34:34.478Z,0.45
2022-07-28T14:37:08.460Z,0.75
2022-07-28T14:39:36.953Z,0.57
2022-07-28T14:42:04.733Z,0.68
2022-07-28T14:44:31.730Z,0.98
2022-07-28T14:46:59.562Z,0.68
2022-07-28T14:49:26.561Z,0.85
2022-07-28T14:51:53.808Z,0.50
2022-07-28T14:54:20.797Z,0.70
2022-07-28T14:56:47.828Z,1.05
2022-07-28T14:59:14.777Z,0.50
2022-07-28T15:01:41.826Z,0.50
2022-07-28T15:04:10.276Z,0.43
2022-07-28T15:06:37.243Z,0.40
2022-07-28T15:09:04.365Z,0.50
2022-07-28T15:11:31.327Z,0.75
2022-07-28T15:13:59.004Z,0.70
2022-07-28T15:16:26.053Z,0.43
2022-07-28T15:18:53.457Z,0.73
2022-07-28T15:21:20.773Z,0.65
2022-07-28T15:23:48.800Z,0.40
2022-07-28T15:26:18.894Z,0.70
2022-07-28T15:28:49.074Z,0.50
2022-07-28T15:31:20.696Z,0.70
2022-07-28T15:33:54.881Z,0.70
2022-07-28T15:36:25.779Z,0.50
2022-07-28T15:38:53.838Z,0.68
2022-07-28T15:41:20.997Z,0.43
2022-07-28T15:43:48.226Z,0.60
2022-07-28T15:46:15.363Z,0.63
2022-07-28T15:48:44.753Z,0.45
2022-07-28T15:51:14.954Z,0.60
2022-07-28T15:53:42.022Z,0.70
2022-07-28T15:56:08.979Z,0.60
2022-07-28T15:58:36.693Z,0.50
2022-07-28T16:01:04.380Z,0.50
2022-07-28T16:03:31.387Z,0.70
2022-07-28T16:05:59.061Z,0.77
2022-07-28T16:08:26.444Z,0.82
2022-07-28T16:10:54.861Z,0.60
2022-07-28T16:13:36.306Z,0.50
2022-07-28T16:16:14.740Z,0.50
2022-07-28T16:18:43.779Z,0.45
2022-07-28T16:21:11.542Z,0.52
2022-07-28T16:23:38.820Z,0.55
2022-07-28T16:26:07.989Z,0.60
2022-07-28T16:28:35.918Z,0.50
2022-07-28T16:31:03.067Z,0.70
2022-07-28T16:33:33.439Z,0.50
2022-07-28T16:36:01.836Z,0.35
2022-07-28T16:38:28.931Z,0.43
2022-07-28T16:40:57.302Z,0.38
2022-07-28T16:43:24.711Z,0.60
2022-07-28T16:45:52.086Z,0.60
2022-07-28T16:48:19.126Z,0.50
2022-07-28T16:50:46.360Z,0.43
2022-07-28T16:53:17.509Z,0.35
2022-07-28T16:55:47.474Z,0.47
2022-07-28T16:58:14.942Z,0.40
2022-07-28T17:00:41.980Z,0.70
2022-07-28T17:03:11.005Z,0.40
2022-07-28T17:05:38.559Z,0.90
2022-07-28T17:08:06.583Z,0.60
2022-07-28T17:10:33.594Z,0.70
2022-07-28T17:13:00.872Z,0.70
2022-07-28T17:15:28.231Z,0.30
2022-07-28T17:17:56.128Z,0.55
2022-07-28T17:20:25.095Z,0.50
2022-07-28T17:22:52.075Z,0.90
2022-07-28T17:28:06.663Z,0.77
2022-07-28T17:30:34.638Z,0.55
2022-07-28T17:33:08.399Z,0.50
2022-07-28T17:35:36.881Z,0.47
2022-07-28T17:38:08.450Z,0.95
2022-07-28T17:40:38.248Z,0.50
2022-07-28T17:43:05.348Z,0.50
2022-07-28T17:45:32.338Z,0.40
2022-07-28T17:47:59.399Z,0.30
2022-07-28T17:50:26.485Z,0.65
2022-07-28T17:52:53.560Z,0.70
2022-07-28T17:55:55.799Z,0.68
2022-07-28T17:58:29.566Z,0.50
2022-07-28T18:01:10.060Z,0.43
2022-07-28T18:03:59.008Z,0.50
2022-07-28T18:06:35.415Z,0.52
2022-07-28T18:09:07.119Z,0.50
2022-07-28T18:11:37.493Z,0.50
2022-07-28T18:41:25.134Z,0.80
2022-07-28T18:43:52.657Z,0.50
2022-07-28T18:46:28.919Z,0.50
2022-07-28T18:57:09.609Z,0.60
2022-07-28T18:59:40.075Z,0.57
2022-07-28T19:02:11.342Z,0.50
2022-07-28T19:04:38.733Z,1.10
2022-07-28T19:07:06.129Z,0.60
2022-07-28T19:09:37.026Z,0.60
2022-07-28T19:12:06.626Z,0.52
2022-07-28T19:14:34.027Z,0.57
2022-07-28T19:17:02.155Z,0.50
2022-07-28T19:19:29.210Z,0.40
2022-07-28T19:21:57.693Z,0.50
2022-07-28T19:24:24.699Z,0.50
2022-07-28T19:26:53.802Z,0.70
2022-07-28T19:29:22.944Z,0.40
2022-07-28T19:31:50.036Z,0.32
2022-07-28T19:34:17.331Z,0.40
2022-07-28T19:36:44.588Z,0.52
2022-07-28T19:41:47.449Z,0.60
2022-07-28T19:44:20.719Z,0.50
2022-07-28T19:46:48.907Z,0.40
2022-07-28T19:49:19.159Z,0.50
2022-07-28T19:51:46.300Z,0.90
2022-07-28T19:54:15.344Z,0.85
2022-07-28T19:56:42.701Z,0.50
2022-07-28T19:59:09.919Z,0.30
2022-07-28T20:01:37.012Z,0.50
2022-07-28T20:06:42.355Z,0.30
2022-07-28T20:09:09.513Z,0.50
2022-07-28T20:11:37.189Z,0.70
2022-07-28T20:14:04.613Z,1.00
2022-07-28T20:16:31.696Z,0.50
2022-07-28T20:18:58.779Z,0.55
2022-07-28T20:21:26.565Z,0.60
2022-07-28T20:23:55.841Z,0.50
2022-07-28T20:26:26.898Z,0.35
2022-07-28T20:28:55.292Z,0.45
2022-07-28T20:31:22.593Z,0.60
2022-07-28T20:33:50.590Z,0.47
2022-07-28T20:36:17.626Z,0.60
2022-07-28T20:38:45.389Z,0.60
2022-07-28T20:41:32.380Z,0.43
2022-07-28T20:44:27.398Z,0.50
2022-07-28T20:46:47.329Z,0.50
2022-07-28T20:49:16.191Z,0.57
2022-07-28T20:51:50.743Z,0.40
2022-07-28T20:54:18.961Z,0.40
2022-07-28T20:56:46.081Z,0.40
2022-07-28T21:06:17.304Z,0.30
2022-07-28T21:08:45.160Z,0.40
2022-07-28T21:13:47.352Z,0.40
2022-07-28T21:16:17.496Z,0.60
2022-07-28T21:18:44.588Z,0.50
2022-07-28T21:21:11.758Z,0.50
2022-07-28T21:23:58.785Z,0.40
2022-07-28T21:26:25.829Z,0.50
2022-07-28T21:29:11.061Z,0.52
2022-07-28T21:32:04.306Z,0.50
2022-07-28T21:34:27.865Z,0.65
2022-07-28T21:36:54.865Z,0.73
2022-07-28T21:39:22.073Z,0.82
2022-07-28T21:41:49.087Z,0.60
2022-07-28T21:44:16.295Z,0.60
2022-07-28T21:46:45.880Z,0.80
2022-07-28T21:49:13.084Z,0.70
2022-07-28T21:51:40.551Z,0.90
2022-07-28T21:54:07.808Z,0.60
2022-07-28T21:56:35.089Z,0.40
2022-07-28T21:59:02.895Z,0.45
2022-07-28T22:01:30.247Z,0.43
2022-07-28T22:03:57.477Z,0.50
2022-07-28T22:06:24.665Z,0.73
2022-07-28T22:08:53.977Z,0.60
2022-07-28T22:11:24.233Z,0.73
2022-07-28T22:13:51.328Z,0.77
2022-07-28T22:16:18.395Z,0.77
2022-07-28T22:18:45.574Z,1.30
2022-07-28T22:21:12.606Z,1.60
2022-07-28T22:23:41.867Z,1.70
2022-07-28T22:26:08.930Z,1.23
2022-07-28T22:28:35.921Z,1.45
2022-07-28T22:31:09.484Z,1.30
2022-07-28T22:33:38.663Z,1.20
2022-07-28T22:36:09.327Z,0.90
2022-07-28T22:38:36.853Z,0.82
2022-07-28T22:41:04.217Z,0.95
2022-07-28T22:43:34.372Z,1.05
2022-07-28T22:46:01.496Z,1.20
2022-07-28T22:48:28.799Z,1.25
2022-07-28T22:50:55.920Z,2.67
2022-07-28T22:53:22.979Z,2.00
2022-07-28T22:55:50.087Z,1.20
2022-07-28T22:58:17.405Z,1.10
2022-07-28T23:00:44.538Z,1.00
2022-07-28T23:03:12.980Z,1.00
2022-07-28T23:05:40.504Z,1.40
2022-07-28T23:08:07.745Z,0.70
2022-07-28T23:10:34.993Z,0.70
2022-07-28T23:13:02.139Z,0.70
2022-07-28T23:15:40.545Z,0.93
2022-07-28T23:18:15.792Z,0.57
2022-07-28T23:20:44.151Z,0.70
2022-07-28T23:23:12.256Z,0.82
2022-07-28T23:25:42.901Z,0.75
2022-07-28T23:28:11.234Z,0.60
2022-07-28T23:30:38.574Z,0.80
2022-07-28T23:33:06.219Z,0.90
2022-07-28T23:35:35.704Z,0.75
2022-07-28T23:38:02.818Z,0.80
2022-07-28T23:40:29.796Z,0.63
2022-07-28T23:42:56.911Z,0.70
2022-07-28T23:45:24.177Z,0.73
2022-07-28T23:47:53.929Z,0.80
2022-07-28T23:50:25.437Z,0.70
2022-07-28T23:52:52.532Z,1.02
2022-07-28T23:55:20.618Z,0.70
2022-07-28T23:57:47.979Z,0.73
